Time;durP1;ratioP1;P1;durP2;ratioP2;P2;SDS_P1;SDS_P2;PMS_P1;PMS_P2;Temp;Humidity;BMP_temperature;BMP_pressure;BME280_temperature;BME280_humidity;BME280_pressure;Samples;Min_cycle;Max_cycle;Signal;HPM_P1;HPM_P2
2023/10/26 00:02:22;;;;;;;6.43;5.83;;;;;;;13.09;100.00;98944.63;1491882;88;21627;-77
2023/10/26 00:04:49;;;;;;;7.03;5.53;;;;;;;13.08;100.00;98939.80;1486052;88;21367;-77
2023/10/26 00:07:16;;;;;;;7.83;5.37;;;;;;;13.08;100.00;98934.48;1490665;88;22300;-77
2023/10/26 00:09:44;;;;;;;9.40;5.40;;;;;;;13.10;100.00;98923.67;1492428;88;21375;-77
2023/10/26 00:12:11;;;;;;;6.63;5.13;;;;;;;13.10;100.00;98923.16;1477876;87;22550;-78
2023/10/26 00:14:39;;;;;;;7.50;5.60;;;;;;;13.09;100.00;98917.55;1467189;88;21441;-78
2023/10/26 00:17:07;;;;;;;7.63;6.23;;;;;;;13.07;100.00;98910.28;1488863;87;21857;-77
2023/10/26 00:19:35;;;;;;;8.03;6.30;;;;;;;13.07;100.00;98910.80;1488647;88;21406;-77
2023/10/26 00:22:02;;;;;;;14.43;6.63;;;;;;;13.08;100.00;98911.09;1487211;87;22194;-78
2023/10/26 00:24:30;;;;;;;9.47;6.20;;;;;;;13.12;100.00;98903.53;1484715;87;21353;-77
2023/10/26 00:26:59;;;;;;;9.70;6.23;;;;;;;13.14;100.00;98898.84;1480196;88;21433;-78
2023/10/26 00:29:26;;;;;;;8.77;5.90;;;;;;;13.18;100.00;98893.46;1484495;87;21819;-78
2023/10/26 00:31:53;;;;;;;8.50;5.40;;;;;;;13.18;100.00;98887.63;1488874;88;22408;-77
2023/10/26 00:34:20;;;;;;;7.77;5.37;;;;;;;13.19;100.00;98887.12;1483737;87;21426;-78
2023/10/26 00:36:48;;;;;;;11.03;5.97;;;;;;;13.21;100.00;98887.74;1487315;87;21323;-77
2023/10/26 00:39:15;;;;;;;6.37;5.57;;;;;;;13.19;100.00;98883.95;1479668;87;22468;-77
2023/10/26 00:41:42;;;;;;;10.93;5.30;;;;;;;13.19;100.00;98883.13;1471580;87;21323;-78
2023/10/26 00:44:09;;;;;;;9.93;6.13;;;;;;;13.14;100.00;98880.25;1474641;87;21324;-77
2023/10/26 00:46:37;;;;;;;10.27;5.50;;;;;;;13.08;100.00;98866.76;1469747;88;22751;-78
2023/10/26 00:49:06;;;;;;;9.77;5.83;;;;;;;13.06;100.00;98876.78;1478928;88;21346;-77
2023/10/26 00:51:33;;;;;;;10.90;5.10;;;;;;;13.05;100.00;98871.14;1474105;87;21353;-77
2023/10/26 00:54:00;;;;;;;8.87;4.97;;;;;;;13.03;100.00;98866.56;1480116;87;21382;-76
2023/10/26 00:56:28;;;;;;;6.43;5.17;;;;;;;13.07;100.00;98864.31;1470252;87;21499;-76
2023/10/26 00:58:58;;;;;;;8.37;5.50;;;;;;;13.10;100.00;98860.74;1466315;88;21463;-77
2023/10/26 01:01:26;;;;;;;9.90;4.73;;;;;;;13.14;100.00;98858.49;1476862;87;21360;-77
2023/10/26 01:03:55;;;;;;;8.77;5.70;;;;;;;13.18;100.00;98860.26;1474053;87;21515;-76
2023/10/26 01:06:22;;;;;;;6.80;5.43;;;;;;;13.20;100.00;98855.53;1473986;88;21367;-78
2023/10/26 01:08:49;;;;;;;7.07;5.23;;;;;;;13.22;100.00;98858.82;1471246;87;21471;-77
2023/10/26 01:11:17;;;;;;;6.63;5.40;;;;;;;13.21;100.00;98850.55;1468890;87;21374;-78
2023/10/26 01:13:44;;;;;;;6.57;5.40;;;;;;;13.21;100.00;98847.38;1475453;87;21464;-78
2023/10/26 01:16:13;;;;;;;7.53;5.43;;;;;;;13.23;100.00;98839.19;1468843;87;21478;-77
2023/10/26 01:18:40;;;;;;;11.17;4.73;;;;;;;13.24;100.00;98835.02;1478033;87;21354;-78
2023/10/26 01:21:10;;;;;;;8.97;5.50;;;;;;;13.26;100.00;98834.83;1475742;87;21346;-78
2023/10/26 01:23:37;;;;;;;5.77;4.73;;;;;;;13.24;100.00;98838.19;1474590;87;21500;-78
2023/10/26 01:26:04;;;;;;;8.97;5.73;;;;;;;13.25;100.00;98837.16;1473513;87;22491;-78
2023/10/26 01:28:31;;;;;;;6.40;4.87;;;;;;;13.26;100.00;98836.16;1470056;87;21392;-78
2023/10/26 01:30:58;;;;;;;6.47;4.50;;;;;;;13.29;100.00;98824.63;1476480;88;21331;-78
2023/10/26 01:33:26;;;;;;;9.67;5.07;;;;;;;13.28;100.00;98826.16;1473027;87;21368;-77
2023/10/26 01:35:53;;;;;;;10.40;4.63;;;;;;;13.26;100.00;98820.22;1474872;87;21434;-76
2023/10/26 01:38:20;;;;;;;5.27;4.27;;;;;;;13.24;100.00;98827.56;1479811;87;21598;-76
2023/10/26 01:40:49;;;;;;;7.10;3.37;;;;;;;13.22;100.00;98827.75;1483346;87;21598;-76
2023/10/26 01:43:16;;;;;;;6.30;3.73;;;;;;;13.21;100.00;98813.36;1477502;87;21382;-76
2023/10/26 01:45:43;;;;;;;10.23;3.97;;;;;;;13.21;100.00;98814.17;1482852;87;21516;-76
2023/10/26 01:48:10;;;;;;;8.80;3.93;;;;;;;13.23;100.00;98828.05;1481931;88;21374;-76
2023/10/26 01:50:38;;;;;;;8.47;4.07;;;;;;;13.18;100.00;98833.69;1485947;88;21382;-76
2023/10/26 01:53:05;;;;;;;7.00;3.47;;;;;;;13.10;100.00;98840.82;1484783;88;21338;-76
2023/10/26 01:55:32;;;;;;;7.70;4.10;;;;;;;13.07;100.00;98845.21;1483943;87;21427;-76
2023/10/26 01:57:59;;;;;;;6.13;3.47;;;;;;;13.08;100.00;98841.52;1483968;88;21545;-76
2023/10/26 02:00:26;;;;;;;7.00;3.97;;;;;;;13.08;100.00;98837.54;1490922;88;21360;-76
2023/10/26 02:02:55;;;;;;;4.97;4.43;;;;;;;13.09;100.00;98853.80;1478790;87;21441;-75
2023/10/26 02:05:22;;;;;;;5.47;4.33;;;;;;;13.08;100.00;98853.48;1484245;87;21374;-76
2023/10/26 02:07:50;;;;;;;6.93;4.53;;;;;;;13.09;100.00;98843.70;1470389;88;22293;-76
2023/10/26 02:10:18;;;;;;;11.17;5.30;;;;;;;13.10;100.00;98842.15;1489808;88;21360;-76
2023/10/26 02:12:45;;;;;;;7.10;4.73;;;;;;;13.10;100.00;98844.80;1490995;87;21352;-76
2023/10/26 02:15:13;;;;;;;6.23;4.20;;;;;;;13.05;100.00;98847.23;1480006;88;21546;-76
2023/10/26 02:17:40;;;;;;;8.20;5.80;;;;;;;13.01;100.00;98846.54;1485066;87;21301;-76
2023/10/26 02:20:08;;;;;;;6.53;4.97;;;;;;;12.97;100.00;98848.75;1483344;87;21530;-77
2023/10/26 02:22:35;;;;;;;7.93;5.50;;;;;;;12.93;100.00;98842.73;1489532;87;21456;-77
2023/10/26 02:25:03;;;;;;;9.23;5.43;;;;;;;12.92;100.00;98841.92;1484367;87;21441;-77
2023/10/26 02:27:32;;;;;;;7.87;5.00;;;;;;;12.91;100.00;98837.61;1478275;88;21323;-77
2023/10/26 02:29:59;;;;;;;8.57;4.93;;;;;;;12.88;100.00;98839.34;1473284;88;21337;-77
2023/10/26 02:32:27;;;;;;;5.30;4.40;;;;;;;12.87;100.00;98825.26;1480619;87;21308;-78
2023/10/26 02:34:54;;;;;;;11.23;5.30;;;;;;;12.87;100.00;98825.26;1492405;87;21412;-77
2023/10/26 02:37:21;;;;;;;8.27;5.33;;;;;;;12.87;100.00;98823.12;1487124;87;22422;-77
2023/10/26 02:39:48;;;;;;;5.33;4.60;;;;;;;12.87;100.00;98821.80;1486547;88;21405;-77
2023/10/26 02:42:15;;;;;;;8.47;5.10;;;;;;;12.88;100.00;98814.13;1471926;87;22410;-76
2023/10/26 02:44:44;;;;;;;5.67;4.43;;;;;;;12.89;100.00;98806.48;1472431;88;21419;-79
2023/10/26 02:47:11;;;;;;;8.57;4.63;;;;;;;12.87;100.00;98800.03;1473817;88;22384;-79
2023/10/26 02:49:38;;;;;;;5.80;4.77;;;;;;;12.84;100.00;98801.77;1479834;87;21354;-78
2023/10/26 02:52:06;;;;;;;5.27;4.50;;;;;;;12.80;100.00;98811.66;1476221;88;21412;-79
2023/10/26 02:54:33;;;;;;;4.67;4.20;;;;;;;12.75;100.00;98820.75;1473928;87;22858;-79
2023/10/26 02:57:00;;;;;;;11.27;5.40;;;;;;;12.68;100.00;98816.73;1475563;88;21345;-79
2023/10/26 02:59:27;;;;;;;8.73;5.43;;;;;;;12.67;100.00;98815.11;1478110;87;21396;-78
2023/10/26 03:01:54;;;;;;;7.00;5.03;;;;;;;12.68;100.00;98810.09;1479816;88;21451;-78
2023/10/26 03:04:21;;;;;;;13.27;5.43;;;;;;;12.71;100.00;98811.53;1460580;87;21368;-79
2023/10/26 03:06:48;;;;;;;5.97;4.63;;;;;;;12.72;100.00;98811.86;1473523;87;21368;-79
2023/10/26 03:09:16;;;;;;;6.20;4.60;;;;;;;12.74;100.00;98800.52;1476589;87;21425;-79
2023/10/26 03:11:44;;;;;;;5.77;4.67;;;;;;;12.75;100.00;98801.66;1472445;87;21471;-78
2023/10/26 03:14:10;;;;;;;7.73;4.73;;;;;;;12.74;100.00;98801.33;1465036;87;21376;-79
2023/10/26 03:16:38;;;;;;;7.27;4.93;;;;;;;12.72;100.00;98801.25;1478733;87;22285;-79
2023/10/26 03:19:05;;;;;;;6.30;4.50;;;;;;;12.72;100.00;98799.92;1467700;88;21486;-79
2023/10/26 03:21:32;;;;;;;4.93;4.43;;;;;;;12.73;100.00;98808.18;1473176;88;22190;-79
2023/10/26 03:23:59;;;;;;;6.90;4.27;;;;;;;12.70;100.00;98806.74;1473397;87;21582;-78
2023/10/26 03:26:26;;;;;;;7.53;4.43;;;;;;;12.69;100.00;98805.60;1486340;88;21302;-79
2023/10/26 03:28:53;;;;;;;6.80;4.73;;;;;;;12.65;100.00;98800.70;1470269;88;21523;-79
2023/10/26 03:31:20;;;;;;;7.63;5.37;;;;;;;12.62;100.00;98794.46;1468670;88;22181;-79
2023/10/26 03:33:47;;;;;;;11.00;6.70;;;;;;;12.61;100.00;98799.47;1477467;88;21413;-78
2023/10/26 03:36:20;;;;;;;7.07;5.33;;;;;;;12.62;100.00;98799.77;1465810;88;21471;-78
2023/10/26 03:38:50;;;;;;;10.90;6.33;;;;;;;12.63;100.00;98797.45;1469760;87;22350;-78
2023/10/26 03:41:18;;;;;;;6.65;5.35;;;;;;;12.70;100.00;98795.31;1470180;87;21479;-77
2023/10/26 03:43:45;;;;;;;7.60;5.67;;;;;;;12.75;100.00;98794.20;1476616;87;21506;-78
2023/10/26 03:46:14;;;;;;;6.70;5.83;;;;;;;12.77;100.00;98789.49;1478306;87;21352;-78
2023/10/26 03:48:42;;;;;;;5.33;4.70;;;;;;;12.80;100.00;98786.43;1470116;87;22217;-77
2023/10/26 03:51:09;;;;;;;9.23;5.63;;;;;;;12.83;100.00;98792.66;1474205;87;21494;-77
2023/10/26 03:53:36;;;;;;;8.67;5.77;;;;;;;12.86;100.00;98784.33;1463450;87;21413;-78
2023/10/26 03:56:04;;;;;;;11.60;8.10;;;;;;;12.89;100.00;98786.58;1474546;88;21323;-77
2023/10/26 03:58:31;;;;;;;7.37;6.40;;;;;;;12.91;100.00;98779.72;1472234;87;21279;-77
2023/10/26 04:01:00;;;;;;;9.67;7.30;;;;;;;12.91;100.00;98777.88;1475368;88;22544;-77
2023/10/26 04:03:28;;;;;;;8.73;6.13;;;;;;;12.94;100.00;98776.13;1466159;88;21606;-76
2023/10/26 04:05:55;;;;;;;8.83;7.10;;;;;;;12.98;100.00;98777.38;1468623;87;21602;-76
2023/10/26 04:08:22;;;;;;;8.83;6.43;;;;;;;13.03;100.00;98774.94;1470691;88;21397;-76
2023/10/26 04:10:49;;;;;;;6.97;6.20;;;;;;;13.05;100.00;98774.20;1472641;87;22984;-76
2023/10/26 04:13:16;;;;;;;9.20;5.73;;;;;;;13.08;100.00;98774.31;1475698;87;21383;-76
2023/10/26 04:15:44;;;;;;;11.03;5.47;;;;;;;13.10;100.00;98759.81;1485237;87;22358;-76
2023/10/26 04:18:11;;;;;;;7.77;5.23;;;;;;;13.15;100.00;98757.03;1464065;88;21390;-76
2023/10/26 04:20:38;;;;;;;5.17;3.77;;;;;;;13.17;100.00;98760.31;1473454;88;21368;-76
2023/10/26 04:23:05;;;;;;;5.83;4.73;;;;;;;13.19;100.00;98762.27;1471985;88;22292;-77
2023/10/26 04:25:34;;;;;;;8.47;4.70;;;;;;;13.21;100.00;98761.56;1472001;87;21616;-77
2023/10/26 04:28:01;;;;;;;4.87;3.83;;;;;;;13.23;100.00;98770.12;1479865;87;21479;-76
2023/10/26 04:30:28;;;;;;;5.23;3.80;;;;;;;13.26;100.00;98756.45;1470580;88;22426;-77
2023/10/26 04:32:56;;;;;;;7.30;4.30;;;;;;;13.27;100.00;98749.63;1472819;88;21530;-78
2023/10/26 04:35:23;;;;;;;6.20;3.90;;;;;;;13.29;100.00;98748.07;1476754;87;22249;-76
2023/10/26 04:37:52;;;;;;;7.03;3.80;;;;;;;13.30;100.00;98751.05;1475365;87;21467;-76
2023/10/26 04:40:19;;;;;;;5.27;2.70;;;;;;;13.31;100.00;98738.06;1475059;87;21523;-77
2023/10/26 04:42:47;;;;;;;4.33;3.30;;;;;;;13.30;100.00;98744.41;1470824;87;21545;-76
2023/10/26 04:45:14;;;;;;;5.80;3.00;;;;;;;13.33;100.00;98748.50;1479052;87;21397;-76
2023/10/26 04:47:41;;;;;;;7.33;3.27;;;;;;;13.33;100.00;98744.00;1477194;87;21308;-75
2023/10/26 04:50:09;;;;;;;5.83;3.10;;;;;;;13.30;100.00;98751.86;1481398;87;21461;-76
2023/10/26 04:52:37;;;;;;;6.40;2.77;;;;;;;13.20;100.00;98746.62;1477586;87;21559;-77
2023/10/26 04:55:05;;;;;;;6.70;3.03;;;;;;;13.21;100.00;98747.77;1473687;87;21442;-76
2023/10/26 04:57:32;;;;;;;4.63;2.83;;;;;;;13.22;100.00;98744.59;1461429;87;21419;-75
2023/10/26 04:59:59;;;;;;;4.27;2.20;;;;;;;13.24;100.00;98743.87;1483587;88;21287;-77
2023/10/26 05:02:26;;;;;;;7.57;2.70;;;;;;;13.26;100.00;98743.17;1474554;88;21529;-79
2023/10/26 05:04:53;;;;;;;7.70;2.33;;;;;;;13.30;100.00;98750.53;1471073;88;21339;-79
2023/10/26 05:07:20;;;;;;;7.53;3.10;;;;;;;13.35;100.00;98747.77;1468949;87;21332;-79
2023/10/26 05:09:48;;;;;;;9.57;2.73;;;;;;;13.36;100.00;98751.55;1472271;88;21316;-79
2023/10/26 05:12:16;;;;;;;7.70;3.23;;;;;;;13.37;100.00;98750.52;1474665;87;21472;-78
2023/10/26 05:14:43;;;;;;;3.97;2.37;;;;;;;13.39;100.00;98749.81;1469343;87;22923;-78
2023/10/26 05:17:10;;;;;;;14.40;3.93;;;;;;;13.40;100.00;98747.45;1470862;87;21456;-76
2023/10/26 05:19:37;;;;;;;7.30;2.50;;;;;;;13.41;100.00;98749.10;1469832;88;21404;-77
2023/10/26 05:22:04;;;;;;;5.13;2.87;;;;;;;13.44;100.00;98751.34;1475708;88;21444;-77
2023/10/26 05:24:32;;;;;;;8.43;3.30;;;;;;;13.46;100.00;98750.60;1476308;87;21367;-76
2023/10/26 05:27:00;;;;;;;5.73;2.10;;;;;;;13.46;100.00;98750.60;1466555;87;21375;-76
2023/10/26 05:29:29;;;;;;;4.43;2.60;;;;;;;13.51;100.00;98747.34;1472451;88;21485;-75
2023/10/26 05:31:56;;;;;;;4.07;2.37;;;;;;;13.54;100.00;98752.23;1478061;87;22024;-84
2023/10/26 05:34:23;;;;;;;6.53;2.57;;;;;;;13.57;100.00;98760.31;1477502;87;21687;-83
2023/10/26 05:36:50;;;;;;;10.93;3.03;;;;;;;13.59;100.00;98763.59;1468567;88;21287;-82
2023/10/26 05:39:17;;;;;;;7.50;2.83;;;;;;;13.63;100.00;98762.13;1474067;88;21308;-82
2023/10/26 05:41:45;;;;;;;6.80;3.23;;;;;;;13.64;100.00;98763.27;1465511;88;21404;-83
2023/10/26 05:44:13;;;;;;;11.17;3.23;;;;;;;13.69;100.00;98774.59;1466021;88;21661;-85
2023/10/26 05:46:40;;;;;;;5.00;2.37;;;;;;;13.72;100.00;98768.86;1471044;88;21452;-84
2023/10/26 05:49:07;;;;;;;6.17;2.93;;;;;;;13.77;100.00;98775.70;1471631;88;21397;-83
2023/10/26 05:51:34;;;;;;;8.73;2.87;;;;;;;13.80;100.00;98773.95;1468842;88;21390;-85
2023/10/26 05:54:21;;;;;;;8.80;3.40;;;;;;;13.86;100.00;98778.44;1476820;88;21464;-83
2023/10/26 05:56:48;;;;;;;4.50;2.40;;;;;;;13.92;100.00;98782.91;1414792;87;21384;-78
2023/10/26 05:59:16;;;;;;;6.00;2.83;;;;;;;13.98;100.00;98787.42;1398977;88;21243;-78
2023/10/26 06:01:48;;;;;;;5.20;2.13;;;;;;;14.00;100.00;98781.36;1398455;88;22197;-78
2023/10/26 06:04:15;;;;;;;5.53;2.80;;;;;;;14.05;100.00;98789.23;1419087;87;21480;-77
2023/10/26 06:06:42;;;;;;;7.20;2.93;;;;;;;14.07;100.00;98788.49;1391874;89;22174;-78
2023/10/26 06:09:10;;;;;;;4.47;2.90;;;;;;;14.09;100.00;98785.12;1398526;87;21236;-77
2023/10/26 06:11:37;;;;;;;5.10;2.67;;;;;;;14.12;100.00;98788.17;1403879;87;21294;-78
2023/10/26 06:14:05;;;;;;;6.17;1.80;;;;;;;14.16;100.00;98788.59;1398817;88;21369;-78
2023/10/26 06:16:32;;;;;;;5.23;1.97;;;;;;;14.17;100.00;98786.22;1398371;87;21243;-78
2023/10/26 06:18:59;;;;;;;4.13;2.60;;;;;;;14.20;100.00;98785.80;1398660;87;21190;-78
2023/10/26 06:21:27;;;;;;;7.00;2.10;;;;;;;14.24;100.00;98788.32;1399081;88;21258;-78
2023/10/26 06:23:54;;;;;;;5.50;1.90;;;;;;;14.27;100.00;98789.27;1397909;87;22137;-78
2023/10/26 06:26:21;;;;;;;6.07;2.40;;;;;;;14.30;100.00;98792.83;1405113;88;21265;-78
2023/10/26 06:28:48;;;;;;;8.90;2.30;;;;;;;14.34;100.00;98795.36;1398752;87;21228;-78
2023/10/26 06:31:21;;;;;;;6.17;2.60;;;;;;;14.39;100.00;98795.55;1398763;87;21243;-78
2023/10/26 06:33:49;;;;;;;29.10;15.20;;;;;;;14.41;100.00;98791.32;1398322;87;21324;-77
2023/10/26 06:36:16;;;;;;;13.70;7.10;;;;;;;14.46;100.00;98790.18;1391524;89;21251;-78
2023/10/26 06:38:43;;;;;;;10.97;4.80;;;;;;;14.51;100.00;98788.22;1404317;88;21257;-77
2023/10/26 06:41:14;;;;;;;7.13;3.30;;;;;;;14.57;100.00;98792.72;1404490;88;22308;-79
2023/10/26 06:43:43;;;;;;;7.57;2.43;;;;;;;14.67;100.00;98779.74;1459362;87;21265;-78
2023/10/26 06:46:10;;;;;;;8.03;2.93;;;;;;;14.73;100.00;98777.58;1554807;87;21409;-79
2023/10/26 06:48:38;;;;;;;7.80;2.90;;;;;;;14.84;100.00;98772.88;1398211;87;21309;-79
2023/10/26 06:51:06;;;;;;;4.43;1.97;;;;;;;14.91;100.00;98770.70;1398469;88;22109;-79
2023/10/26 06:53:33;;;;;;;11.73;3.03;;;;;;;15.00;100.00;98777.39;1396767;89;21287;-79
2023/10/26 06:56:00;;;;;;;4.03;1.70;;;;;;;15.11;100.00;98771.38;1554611;88;21294;-79
2023/10/26 06:58:27;;;;;;;3.70;2.17;;;;;;;15.17;100.00;98771.83;1398427;87;21258;-79
2023/10/26 07:00:54;;;;;;;5.20;2.13;;;;;;;15.21;100.00;98776.20;1391858;89;21280;-78
2023/10/26 07:03:22;;;;;;;3.87;2.00;;;;;;;15.27;100.00;98772.14;1398896;88;21250;-79
2023/10/26 07:05:49;;;;;;;29.83;3.60;;;;;;;15.34;100.00;98770.77;1404361;88;21294;-79
2023/10/26 07:08:17;;;;;;;6.10;2.20;;;;;;;15.37;100.00;98781.52;1398480;88;21317;-79
2023/10/26 07:10:44;;;;;;;6.17;1.90;;;;;;;15.38;100.00;98782.61;1397757;87;21206;-79
2023/10/26 07:13:11;;;;;;;11.97;3.37;;;;;;;15.39;100.00;98771.42;1398623;88;21243;-78
2023/10/26 07:15:39;;;;;;;4.83;2.20;;;;;;;15.41;100.00;98772.84;1398616;87;21257;-80
2023/10/26 07:18:06;;;;;;;4.33;2.23;;;;;;;15.43;100.00;98769.97;1398889;88;22107;-79
2023/10/26 07:20:33;;;;;;;6.00;2.37;;;;;;;15.43;100.00;98772.64;1404866;87;21287;-78
2023/10/26 07:23:00;;;;;;;7.97;1.80;;;;;;;15.49;100.00;98771.75;1398449;87;21375;-79
2023/10/26 07:25:27;;;;;;;7.10;1.70;;;;;;;15.59;100.00;98774.72;1391989;89;21263;-78
2023/10/26 07:27:55;;;;;;;6.83;3.17;;;;;;;15.64;100.00;98770.88;1398591;88;21236;-78
2023/10/26 07:30:22;;;;;;;6.23;2.20;;;;;;;15.71;100.00;98779.67;1413852;88;21434;-79
2023/10/26 07:32:49;;;;;;;6.10;1.97;;;;;;;15.81;100.00;98778.34;1470984;87;21323;-80
2023/10/26 07:35:17;;;;;;;7.00;2.00;;;;;;;15.82;100.00;98785.30;1470677;88;22197;-79
2023/10/26 07:37:44;;;;;;;4.97;1.60;;;;;;;15.87;100.00;98786.78;1477973;88;21360;-79
2023/10/26 07:40:12;;;;;;;5.37;2.37;;;;;;;15.93;100.00;98775.22;1470158;87;21383;-79
2023/10/26 07:42:39;;;;;;;5.53;2.33;;;;;;;15.95;100.00;98779.30;1482464;87;21551;-80
2023/10/26 07:45:07;;;;;;;6.57;1.93;;;;;;;15.95;100.00;98777.97;1485293;87;21575;-79
2023/10/26 07:47:34;;;;;;;7.87;2.03;;;;;;;15.97;100.00;98768.42;1488555;87;21404;-78
2023/10/26 07:50:01;;;;;;;3.80;1.57;;;;;;;16.02;100.00;98772.55;1482252;88;21300;-77
2023/10/26 07:52:28;;;;;;;4.93;2.10;;;;;;;16.07;100.00;98780.70;1482238;88;21434;-79
2023/10/26 07:54:55;;;;;;;5.80;1.80;;;;;;;16.09;100.00;98782.64;1483258;88;21822;-79
2023/10/26 07:57:23;;;;;;;4.20;1.77;;;;;;;16.12;100.00;98782.19;1482218;88;21411;-79
2023/10/26 07:59:50;;;;;;;9.13;2.80;;;;;;;16.13;100.00;98788.34;1476333;87;21382;-80
2023/10/26 08:02:17;;;;;;;8.30;2.27;;;;;;;16.18;100.00;98790.63;1477513;87;21441;-79
2023/10/26 08:04:49;;;;;;;7.47;2.43;;;;;;;16.23;100.00;98789.45;1478223;87;21388;-80
2023/10/26 08:07:16;;;;;;;5.77;1.83;;;;;;;16.32;100.00;98784.62;1569975;87;22026;-79
2023/10/26 08:09:44;;;;;;;3.55;1.57;;;;;;;16.37;100.00;98777.25;1407463;88;21257;-79
2023/10/26 08:12:11;;;;;;;4.87;2.00;;;;;;;16.50;100.00;98777.09;1413202;88;21415;-80
2023/10/26 08:14:38;;;;;;;4.10;2.05;;;;;;;16.64;100.00;98775.86;1423271;87;21426;-79
2023/10/26 08:17:06;;;;;;;4.62;1.50;;;;;;;16.81;100.00;98780.08;1482578;87;21426;-79
2023/10/26 08:19:33;;;;;;;6.67;2.50;;;;;;;16.98;100.00;98775.42;1477804;87;21374;-78
2023/10/26 08:22:00;;;;;;;4.87;1.65;;;;;;;17.10;100.00;98786.94;1484806;88;21441;-80
2023/10/26 08:24:28;;;;;;;6.12;1.80;;;;;;;17.23;100.00;98789.38;1482051;88;21492;-79
2023/10/26 08:26:55;;;;;;;6.28;2.10;;;;;;;17.30;100.00;98790.11;1481718;87;21396;-88
2023/10/26 08:29:24;;;;;;;8.80;3.15;;;;;;;17.42;100.00;98786.09;1480488;87;21852;-88
2023/10/26 08:31:51;;;;;;;11.53;2.52;;;;;;;17.46;100.00;98783.77;1484944;87;22018;-88
2023/10/26 08:34:18;;;;;;;16.65;2.87;;;;;;;17.60;100.00;98783.30;1483406;87;21558;-87
2023/10/26 08:36:46;;;;;;;8.55;2.90;;;;;;;17.70;100.00;98780.05;1466953;88;21433;-86
2023/10/26 08:39:13;;;;;;;13.00;2.98;;;;;;;17.74;100.00;98777.72;1483641;87;21382;-88
2023/10/26 08:41:44;;;;;;;5.15;2.70;;;;;;;17.72;100.00;98780.64;1482645;87;21500;-86
2023/10/26 08:44:12;;;;;;;3.87;2.00;;;;;;;17.68;100.00;98772.78;1484231;87;22314;-89
2023/10/26 08:46:40;;;;;;;9.08;2.70;;;;;;;17.68;100.00;98774.64;1485405;87;21596;-89
2023/10/26 08:49:09;;;;;;;5.65;2.15;;;;;;;17.57;100.00;98781.09;1473462;88;22306;-85
2023/10/26 08:51:36;;;;;;;2.75;1.32;;;;;;;17.47;100.00;98777.39;1487336;87;21433;-86
2023/10/26 08:54:04;;;;;;;11.40;2.25;;;;;;;17.36;100.00;98772.32;1484443;87;21359;-83
2023/10/26 08:56:32;;;;;;;4.42;1.80;;;;;;;17.30;100.00;98774.59;1467441;88;21360;-79
2023/10/26 08:59:00;;;;;;;9.63;1.77;;;;;;;17.25;100.00;98777.95;1482425;88;21499;-79
2023/10/26 09:01:28;;;;;;;7.45;2.12;;;;;;;17.19;100.00;98771.38;1478740;87;21322;-79
2023/10/26 09:03:55;;;;;;;10.48;2.37;;;;;;;17.19;100.00;98768.70;1486021;87;21441;-79
2023/10/26 09:06:22;;;;;;;6.17;2.40;;;;;;;17.19;100.00;98774.05;1478543;88;22313;-78
2023/10/26 09:09:01;;;;;;;8.63;2.05;;;;;;;17.14;100.00;98773.39;1477116;87;21350;-79
2023/10/26 09:11:29;;;;;;;5.97;2.80;;;;;;;17.09;100.00;98774.59;1490835;87;22188;-79
2023/10/26 09:14:20;;;;;;;10.58;3.30;;;;;;;17.01;100.00;98777.11;1474918;88;21397;-79
2023/10/26 09:16:49;;;;;;;5.00;2.20;;;;;;;16.97;100.00;98773.77;1483365;87;21470;-78
2023/10/26 09:19:19;;;;;;;8.05;2.22;;;;;;;16.91;100.00;98772.30;1426898;87;21470;-77
2023/10/26 09:21:56;;;;;;;5.85;2.58;;;;;;;16.86;100.00;98774.03;1414672;87;21228;-78
2023/10/26 09:24:29;;;;;;;13.28;4.03;;;;;;;16.78;100.00;98771.70;1481282;87;21426;-79
2023/10/26 09:27:01;;;;;;;6.60;2.80;;;;;;;16.70;100.00;98773.61;1484808;87;21901;-79
2023/10/26 09:29:43;;;;;;;4.20;2.30;;;;;;;16.61;100.00;98766.97;1483851;87;21374;-79
2023/10/26 09:32:10;;;;;;;10.68;3.60;;;;;;;16.58;100.00;98767.42;1487080;87;21441;-78
2023/10/26 09:34:43;;;;;;;5.35;2.45;;;;;;;16.53;100.00;98761.14;1487592;87;21351;-79
2023/10/26 09:37:11;;;;;;;10.03;3.55;;;;;;;16.48;100.00;98756.46;1488642;87;21308;-79
2023/10/26 09:39:42;;;;;;;9.95;4.00;;;;;;;16.49;100.00;98759.97;1488196;87;21293;-79
2023/10/26 09:42:09;;;;;;;8.70;3.10;;;;;;;16.50;100.00;98759.73;1477192;87;22388;-79
2023/10/26 09:44:37;;;;;;;11.60;3.00;;;;;;;16.53;100.00;98760.61;1470579;88;21552;-78
2023/10/26 09:47:06;;;;;;;13.63;3.73;;;;;;;16.56;100.00;98762.83;1476984;87;21324;-79
2023/10/26 09:49:33;;;;;;;8.85;2.83;;;;;;;16.57;100.00;98760.47;1476083;87;21482;-78
2023/10/26 09:52:00;;;;;;;6.95;2.55;;;;;;;16.60;100.00;98753.34;1468727;88;21587;-78
2023/10/26 09:54:36;;;;;;;17.77;6.92;;;;;;;16.64;100.00;98748.34;1482790;88;22388;-79
2023/10/26 09:57:24;;;;;;;8.13;3.05;;;;;;;16.69;100.00;98752.48;1475473;87;21388;-79
2023/10/26 09:59:53;;;;;;;8.13;3.10;;;;;;;16.74;100.00;98739.24;1476400;87;21456;-78
2023/10/26 10:02:21;;;;;;;4.97;2.72;;;;;;;16.83;100.00;98743.27;1467249;88;21390;-77
2023/10/26 10:04:48;;;;;;;16.40;8.18;;;;;;;16.92;100.00;98741.08;1479237;87;22438;-78
2023/10/26 10:07:18;;;;;;;7.05;2.62;;;;;;;16.97;100.00;98735.83;1477431;88;21448;-79
2023/10/26 10:10:06;;;;;;;5.65;2.15;;;;;;;17.05;100.00;98732.83;1477341;88;21397;-79
2023/10/26 10:12:36;;;;;;;6.03;1.72;;;;;;;17.11;100.00;98731.09;1468550;87;22887;-79
2023/10/26 10:15:09;;;;;;;6.05;2.15;;;;;;;17.18;100.00;98737.69;1401521;87;21428;-78
2023/10/26 10:17:49;;;;;;;8.75;2.65;;;;;;;17.24;100.00;98735.41;1559131;87;21213;-79
2023/10/26 10:20:24;;;;;;;3.22;1.87;;;;;;;17.26;100.00;98738.65;1559158;87;21213;-78
2023/10/26 10:22:58;;;;;;;6.70;2.27;;;;;;;17.30;100.00;98737.16;1528660;88;21309;-79
2023/10/26 10:25:52;;;;;;;3.98;2.00;;;;;;;17.34;100.00;98731.09;1515870;88;21340;-78
2023/10/26 10:28:20;;;;;;;9.30;1.77;;;;;;;17.39;100.00;98729.59;1559297;87;21162;-79
2023/10/26 10:31:00;;;;;;;2.15;1.32;;;;;;;17.51;100.00;98729.87;1398608;87;21264;-81
2023/10/26 10:33:28;;;;;;;6.47;1.80;;;;;;;17.62;100.00;98737.60;1559338;87;22138;-78
2023/10/26 10:36:03;;;;;;;5.50;2.17;;;;;;;17.85;100.00;98734.11;1403008;87;21251;-80
2023/10/26 10:38:32;;;;;;;9.10;3.65;;;;;;;18.22;100.00;98737.79;1394346;88;21368;-76
2023/10/26 10:41:05;;;;;;;8.70;3.20;;;;;;;18.69;100.00;98741.05;1468125;88;21526;-80
2023/10/26 10:43:45;;;;;;;7.47;2.67;;;;;;;19.13;100.00;98737.78;1484617;87;21568;-80
2023/10/26 10:46:23;;;;;;;9.10;2.58;;;;;;;19.39;100.00;98737.13;1478433;87;21419;-80
2023/10/26 10:49:02;;;;;;;5.92;1.80;;;;;;;19.64;100.00;98729.14;1490360;87;21617;-80
2023/10/26 10:51:41;;;;;;;5.87;1.62;;;;;;;19.95;100.00;98725.55;1480016;88;21294;-80
2023/10/26 10:54:20;;;;;;;13.45;2.67;;;;;;;20.06;100.00;98734.01;1481321;87;21416;-79
2023/10/26 10:56:49;;;;;;;9.48;2.65;;;;;;;20.03;100.00;98725.11;1486309;88;21571;-79
2023/10/26 10:59:30;;;;;;;7.08;2.00;;;;;;;20.13;100.00;98715.81;1488525;87;21522;-80
2023/10/26 11:02:14;;;;;;;6.47;1.90;;;;;;;20.21;100.00;98720.75;1484489;88;22482;-78
2023/10/26 11:04:56;;;;;;;7.65;2.15;;;;;;;19.92;100.00;98712.09;1490315;87;22358;-79
2023/10/26 11:07:28;;;;;;;4.17;2.10;;;;;;;19.74;100.00;98717.78;1490846;87;21577;-79
2023/10/26 11:10:00;;;;;;;11.03;2.27;;;;;;;19.59;100.00;98716.48;1493187;87;21514;-80
2023/10/26 11:12:27;;;;;;;6.65;2.00;;;;;;;19.39;100.00;98722.38;1485758;87;21367;-79
2023/10/26 11:14:56;;;;;;;3.87;1.40;;;;;;;19.12;100.00;98715.52;1493230;87;22425;-80
2023/10/26 11:17:25;;;;;;;7.45;1.82;;;;;;;18.86;100.00;98718.33;1495718;87;22255;-80
2023/10/26 11:19:53;;;;;;;6.37;2.00;;;;;;;18.67;100.00;98727.61;1482095;87;21352;-80
2023/10/26 11:22:22;;;;;;;4.90;1.47;;;;;;;18.51;100.00;98720.38;1486172;87;22306;-79
2023/10/26 11:24:49;;;;;;;6.45;2.27;;;;;;;18.36;100.00;98728.42;1489114;88;22328;-80
2023/10/26 11:27:20;;;;;;;6.83;1.75;;;;;;;18.27;100.00;98728.53;1480810;87;21433;-80
2023/10/26 11:30:04;;;;;;;4.08;2.35;;;;;;;18.33;100.00;98730.77;1489669;87;21474;-79
2023/10/26 11:32:31;;;;;;;5.30;1.85;;;;;;;18.48;100.00;98727.84;1492599;87;21375;-80